Airfield :
LOGIN :

Register | Disclaimer

   EN    FR    IT 

 










Legend :    VFR   Marginal VFR   IFR   Intensive IFR   Very Intensive IFR
Visi :
Ceiling :
>= 8 km
>= 3000ft
5 to 8 km
1000 to 3000 ft
1500m to 5 km
500 to 1000 ft
800 to 1500m
200 to 500 ft
< 800m
< 200 ft
Symbols :   Thunderstorms  Fog  Heavy snow  Heavy precipitations  Wind > 20 kt
SIGMETs :     Misc.  Thunderstorms  Icing  Turbulence  Mountain Waves  Volcanic Ashes






- Airport Elevation : 1017 ft


LFSL - Brive Souillac

CURRENT METAR :
  • 270530Z AUTO 29004KT 240V330 9999 BKN031 OVC049 06/05 Q1013 BECMG 4500 -RA

EXPIRED METARs :
  • 270500Z AUTO 30006KT 9999 OVC035 06/05 Q1013 TEMPO BKN003
  • 270430Z AUTO 30005KT 270V330 9999 BKN034 OVC042 06/05 Q1013 TEMPO BKN003
  • 270400Z AUTO 29005KT 240V310 9999 OVC045 05/05 Q1013 TEMPO BKN003
  • 270330Z AUTO 29005KT 250V320 9999 FEW045 05/05 Q1013 TEMPO BKN003
  • 270300Z AUTO 31006KT CAVOK 05/05 Q1013 TEMPO BKN003

TAF TAF LFSL
Valid from the 27 at 06:00 until the 27 at 15:00 UTC


270500Z 2706/2715 30006KT 9999 BKN034
BECMG 2706/2708 4500 -RA
TEMPO 2708/2715 2000 RA BKN004



MET'MAP, your aeronautical weather chart ! - Copyright ORBIFLY December 2007 - Disclaimer

ORBIFLY MET'MAP TEAM :

Programming & Development : Alexandra Zaïnal
Concept & original design : Baudouin d'Aumeries
Assistance for programming : Marc-Olivier Méhu
Technical & hardware support : Manuel Goepfert

Contact : metmap@orbifly.com




SOURCES & CREDITS :

   NOAA